createdAt,value
2024-04-15T00:01:08.196Z,1.20
2024-04-15T00:03:35.064Z,0.90
2024-04-15T00:06:01.872Z,1.25
2024-04-15T00:08:28.576Z,1.27
2024-04-15T00:10:55.295Z,1.05
2024-04-15T00:13:22.055Z,1.20
2024-04-15T00:15:59.005Z,1.63
2024-04-15T00:18:26.331Z,1.10
2024-04-15T00:21:02.766Z,1.85
2024-04-15T00:23:29.557Z,0.85
2024-04-15T00:25:57.313Z,1.17
2024-04-15T00:28:24.500Z,1.25
2024-04-15T00:30:51.432Z,1.13
2024-04-15T00:33:19.081Z,1.50
2024-04-15T00:35:46.335Z,1.38
2024-04-15T00:38:14.358Z,1.38
2024-04-15T00:40:41.289Z,1.05
2024-04-15T00:43:09.200Z,1.30
2024-04-15T00:45:36.103Z,2.05
2024-04-15T00:48:04.451Z,1.55
2024-04-15T00:50:33.768Z,1.77
2024-04-15T00:53:03.198Z,0.93
2024-04-15T00:55:31.770Z,1.35
2024-04-15T00:57:58.620Z,1.10
2024-04-15T01:00:25.793Z,1.20
2024-04-15T01:02:52.958Z,1.20
2024-04-15T01:05:19.652Z,0.98
2024-04-15T01:07:46.342Z,0.88
2024-04-15T01:10:13.367Z,1.80
2024-04-15T01:12:41.841Z,1.27
2024-04-15T01:15:08.736Z,1.02
2024-04-15T01:17:35.564Z,1.13
2024-04-15T01:20:02.401Z,1.42
2024-04-15T01:22:35.175Z,0.90
2024-04-15T01:25:03.359Z,1.10
2024-04-15T01:27:30.198Z,1.10
2024-04-15T01:29:56.895Z,1.30
2024-04-15T01:32:23.650Z,0.98
2024-04-15T01:34:50.359Z,1.15
2024-04-15T01:37:17.034Z,1.00
2024-04-15T01:39:43.875Z,0.82
2024-04-15T01:42:10.559Z,1.13
2024-04-15T01:44:37.253Z,1.30
2024-04-15T01:47:04.086Z,1.08
2024-04-15T01:49:30.799Z,1.05
2024-04-15T01:51:57.493Z,1.10
2024-04-15T01:54:24.231Z,1.02
2024-04-15T01:56:50.877Z,1.10
2024-04-15T01:59:17.640Z,1.00
2024-04-15T02:01:44.313Z,1.25
2024-04-15T02:04:11.058Z,1.17
2024-04-15T02:06:38.028Z,1.00
2024-04-15T02:09:04.739Z,1.17
2024-04-15T02:11:31.430Z,0.88
2024-04-15T02:13:58.097Z,1.08
2024-04-15T02:16:24.785Z,1.08
2024-04-15T02:18:51.523Z,1.90
2024-04-15T02:21:18.769Z,1.85
2024-04-15T02:23:45.451Z,1.35
2024-04-15T02:26:12.202Z,1.20
2024-04-15T02:28:38.929Z,1.13
2024-04-15T02:31:05.777Z,1.00
2024-04-15T02:33:32.691Z,1.10
2024-04-15T02:35:59.345Z,1.23
2024-04-15T02:38:26.025Z,1.83
2024-04-15T02:40:53.955Z,1.85
2024-04-15T02:43:20.672Z,1.25
2024-04-15T02:45:49.128Z,1.65
2024-04-15T02:48:19.084Z,2.15
2024-04-15T02:50:45.796Z,1.55
2024-04-15T02:53:12.462Z,1.50
2024-04-15T02:55:39.160Z,1.65
2024-04-15T02:58:05.888Z,1.42
2024-04-15T03:00:33.537Z,1.25
2024-04-15T03:03:00.537Z,1.58
2024-04-15T03:05:27.293Z,1.45
2024-04-15T03:07:54.068Z,2.17
2024-04-15T03:10:20.889Z,4.85
2024-04-15T03:12:52.885Z,2.10
2024-04-15T03:15:19.869Z,1.63
2024-04-15T03:17:50.221Z,1.25
2024-04-15T03:22:53.573Z,1.83
2024-04-15T03:25:21.811Z,1.67
2024-04-15T03:27:52.100Z,1.33
2024-04-15T03:30:19.173Z,1.75
2024-04-15T03:32:45.921Z,1.63
2024-04-15T03:35:15.519Z,1.80
2024-04-15T03:37:43.216Z,1.70
2024-04-15T03:40:11.684Z,1.70
2024-04-15T03:42:38.735Z,1.63
2024-04-15T03:45:07.135Z,3.00
2024-04-15T03:47:34.028Z,1.75
2024-04-15T03:50:00.919Z,1.75
2024-04-15T03:52:27.685Z,1.70
2024-04-15T03:54:54.398Z,1.70
2024-04-15T03:57:21.121Z,1.77
2024-04-15T03:59:47.798Z,1.95
2024-04-15T04:02:14.538Z,1.70
2024-04-15T04:04:41.956Z,1.38
2024-04-15T04:07:09.016Z,2.15
2024-04-15T04:09:39.158Z,1.52
2024-04-15T04:12:06.205Z,1.80
2024-04-15T04:14:33.002Z,2.10
2024-04-15T04:16:59.709Z,1.80
2024-04-15T04:19:27.071Z,1.77
2024-04-15T04:21:54.083Z,1.75
2024-04-15T04:24:20.831Z,1.88
2024-04-15T04:26:47.551Z,1.80
2024-04-15T04:29:14.296Z,2.03
2024-04-15T04:31:41.202Z,2.17
2024-04-15T04:34:08.034Z,2.30
2024-04-15T04:36:34.831Z,2.00
2024-04-15T04:39:01.573Z,1.92
2024-04-15T04:41:29.727Z,2.08
2024-04-15T04:43:56.440Z,2.20
2024-04-15T04:46:23.143Z,2.00
2024-04-15T04:48:50.901Z,2.40
2024-04-15T04:51:17.730Z,2.33
2024-04-15T04:53:44.598Z,2.00
2024-04-15T04:56:12.927Z,3.33
2024-04-15T04:58:39.960Z,3.15
2024-04-15T05:01:14.511Z,3.10
2024-04-15T05:03:45.497Z,2.78
2024-04-15T05:06:13.501Z,3.05
2024-04-15T05:08:40.683Z,3.70
2024-04-15T05:11:07.875Z,2.65
2024-04-15T05:13:35.056Z,3.33
2024-04-15T05:16:07.713Z,3.13
2024-04-15T05:18:35.131Z,2.92
2024-04-15T05:21:02.255Z,2.90
2024-04-15T05:23:29.586Z,3.00
2024-04-15T05:25:57.553Z,3.40
2024-04-15T05:28:24.351Z,2.78
2024-04-15T05:30:55.828Z,2.42
2024-04-15T05:33:22.747Z,2.72
2024-04-15T05:35:49.704Z,2.50
2024-04-15T05:38:17.347Z,2.75
2024-04-15T05:40:44.252Z,2.72
2024-04-15T05:43:11.841Z,2.75
2024-04-15T05:45:38.905Z,3.05
2024-04-15T05:48:06.546Z,3.00
2024-04-15T05:50:33.653Z,2.78
2024-04-15T05:53:00.344Z,2.53
2024-04-15T05:55:27.171Z,2.88
2024-04-15T05:57:53.899Z,2.70
2024-04-15T06:00:20.932Z,2.88
2024-04-15T06:02:47.933Z,3.60
2024-04-15T06:05:14.665Z,3.25
2024-04-15T06:07:41.578Z,2.92
2024-04-15T06:10:08.356Z,3.58
2024-04-15T06:12:35.055Z,3.10
2024-04-15T06:15:01.898Z,2.85
2024-04-15T06:17:30.235Z,3.20
2024-04-15T06:19:56.936Z,2.85
2024-04-15T06:22:24.444Z,3.22
2024-04-15T06:24:51.252Z,4.03
2024-04-15T06:27:19.539Z,3.63
2024-04-15T06:29:46.254Z,2.90
2024-04-15T06:32:13.584Z,3.58
2024-04-15T06:34:40.443Z,3.35
2024-04-15T06:37:07.155Z,3.35
2024-04-15T06:39:35.332Z,3.78
2024-04-15T06:42:02.210Z,3.17
2024-04-15T06:44:28.899Z,3.67
2024-04-15T06:46:56.323Z,3.45
2024-04-15T06:49:23.112Z,4.05
2024-04-15T06:51:50.075Z,3.78
2024-04-15T06:54:16.965Z,3.53
2024-04-15T06:56:43.671Z,3.78
2024-04-15T06:59:10.362Z,3.65
2024-04-15T07:01:39.292Z,4.57
2024-04-15T07:04:07.489Z,3.85
2024-04-15T07:06:34.394Z,3.78
2024-04-15T07:09:01.242Z,4.25
2024-04-15T07:11:28.032Z,3.92
2024-04-15T07:13:54.763Z,4.30
2024-04-15T07:16:21.683Z,3.90
2024-04-15T07:18:48.521Z,4.97
2024-04-15T07:21:15.424Z,3.90
2024-04-15T07:23:46.058Z,4.97
2024-04-15T07:26:13.033Z,3.90
2024-04-15T07:28:40.589Z,4.18
2024-04-15T07:31:08.096Z,4.55
2024-04-15T07:33:35.065Z,5.05
2024-04-15T07:36:02.413Z,4.88
2024-04-15T07:38:29.428Z,4.50
2024-04-15T07:40:59.879Z,4.30
2024-04-15T07:45:53.753Z,4.30
2024-04-15T07:48:20.508Z,4.60
2024-04-15T07:50:47.206Z,3.63
2024-04-15T07:53:13.904Z,4.25
2024-04-15T07:55:44.818Z,4.00
2024-04-15T07:58:11.618Z,3.55
2024-04-15T08:00:38.571Z,3.97
2024-04-15T08:03:05.544Z,4.63
2024-04-15T08:05:32.806Z,3.63
2024-04-15T08:07:59.622Z,3.70
2024-04-15T08:10:26.449Z,3.75
2024-04-15T08:12:53.613Z,3.60
2024-04-15T08:15:21.111Z,3.95
2024-04-15T08:17:47.857Z,3.70
2024-04-15T08:20:14.613Z,3.83
2024-04-15T08:22:42.126Z,3.60
2024-04-15T08:25:10.259Z,4.20
2024-04-15T08:27:37.728Z,3.47
2024-04-15T08:30:05.424Z,3.20
2024-04-15T08:32:32.816Z,3.17
2024-04-15T08:35:00.156Z,3.80
2024-04-15T08:37:26.933Z,3.33
2024-04-15T08:39:53.871Z,2.92
2024-04-15T08:42:37.903Z,3.05
2024-04-15T08:45:08.265Z,3.42
2024-04-15T08:47:36.300Z,3.55
2024-04-15T08:50:06.803Z,3.92
2024-04-15T08:55:00.336Z,3.67
2024-04-15T08:57:28.807Z,3.33
2024-04-15T08:59:57.280Z,2.80
2024-04-15T09:02:24.157Z,2.67
2024-04-15T09:04:53.452Z,4.45
2024-04-15T09:07:21.819Z,3.55
2024-04-15T09:09:49.081Z,3.67
2024-04-15T09:12:15.811Z,3.38
2024-04-15T09:14:42.501Z,3.65
2024-04-15T09:17:12.180Z,3.20
2024-04-15T09:19:42.622Z,3.95
2024-04-15T09:22:09.369Z,3.30
2024-04-15T09:24:36.406Z,3.33
2024-04-15T09:27:03.077Z,4.13
2024-04-15T09:29:29.764Z,3.47
2024-04-15T09:31:57.078Z,4.10
2024-04-15T09:34:23.838Z,3.95
2024-04-15T09:36:58.130Z,4.20
2024-04-15T09:39:25.301Z,3.72
2024-04-15T09:41:54.384Z,3.60
2024-04-15T09:44:21.442Z,3.60
2024-04-15T09:46:48.539Z,3.70
2024-04-15T09:49:15.708Z,4.47
2024-04-15T09:51:43.717Z,3.83
2024-04-15T09:54:11.966Z,3.28
2024-04-15T09:56:49.031Z,3.63
2024-04-15T09:59:16.874Z,3.13
2024-04-15T10:01:44.691Z,3.58
2024-04-15T10:04:22.208Z,3.85
2024-04-15T10:06:53.301Z,3.08
2024-04-15T10:09:20.493Z,3.65
2024-04-15T10:11:48.849Z,3.90
2024-04-15T10:14:20.262Z,2.85
2024-04-15T10:16:49.007Z,2.50
2024-04-15T10:19:27.958Z,2.50
2024-04-15T10:21:56.179Z,2.50
2024-04-15T10:24:23.726Z,2.22
2024-04-15T10:26:50.470Z,2.25
2024-04-15T10:29:22.942Z,2.08
2024-04-15T10:31:53.863Z,1.90
2024-04-15T10:34:25.257Z,2.00
2024-04-15T10:36:53.646Z,2.53
2024-04-15T10:39:21.814Z,2.30
2024-04-15T10:41:49.444Z,2.08
2024-04-15T10:44:16.457Z,1.45
2024-04-15T10:46:49.268Z,1.30
2024-04-15T10:49:16.989Z,1.65
2024-04-15T10:51:44.748Z,1.98
2024-04-15T10:54:11.492Z,1.63
2024-04-15T10:56:38.233Z,1.23
2024-04-15T10:59:05.324Z,0.98
2024-04-15T11:01:32.077Z,1.45
2024-04-15T11:03:59.010Z,1.13
2024-04-15T11:06:29.113Z,1.50
2024-04-15T11:08:58.251Z,1.50
2024-04-15T11:11:26.722Z,1.27
2024-04-15T11:13:53.860Z,1.58
2024-04-15T11:16:20.875Z,1.00
2024-04-15T11:18:47.717Z,1.10
2024-04-15T11:21:14.679Z,1.10
2024-04-15T11:23:41.417Z,1.35
2024-04-15T11:26:08.866Z,1.45
2024-04-15T11:28:36.590Z,1.67
2024-04-15T11:31:03.871Z,0.95
2024-04-15T11:33:30.740Z,1.40
2024-04-15T11:35:57.572Z,2.20
2024-04-15T11:38:25.613Z,1.10
2024-04-15T11:40:55.463Z,2.03
2024-04-15T11:43:22.685Z,1.67
2024-04-15T11:45:56.421Z,1.40
2024-04-15T11:48:23.924Z,1.20
2024-04-15T11:50:51.025Z,1.45
2024-04-15T11:53:27.777Z,0.98
2024-04-15T11:55:55.103Z,0.90
2024-04-15T11:58:22.542Z,1.20
2024-04-15T12:00:49.568Z,0.90
2024-04-15T12:03:16.478Z,1.17
2024-04-15T12:05:43.533Z,0.60
2024-04-15T12:08:10.347Z,0.70
2024-04-15T12:10:37.187Z,1.42
2024-04-15T12:13:05.144Z,1.25
2024-04-15T12:15:31.891Z,0.40
2024-04-15T12:17:58.732Z,1.00
2024-04-15T12:20:25.700Z,1.00
2024-04-15T12:22:52.417Z,0.73
2024-04-15T12:25:19.143Z,0.57
2024-04-15T12:27:46.663Z,1.25
2024-04-15T12:30:13.684Z,0.60
2024-04-15T12:32:43.590Z,1.50
2024-04-15T12:35:11.969Z,0.73
2024-04-15T12:37:38.853Z,0.82
2024-04-15T12:40:07.610Z,0.73
2024-04-15T12:42:35.263Z,0.77
2024-04-15T12:45:02.477Z,1.30
2024-04-15T12:47:29.251Z,1.40
2024-04-15T12:49:56.017Z,1.20
2024-04-15T12:52:22.846Z,0.88
2024-04-15T12:54:52.441Z,0.82
2024-04-15T12:57:20.721Z,0.73
2024-04-15T12:59:47.670Z,0.75
2024-04-15T13:02:14.450Z,0.65
2024-04-15T13:04:41.257Z,0.52
2024-04-15T13:07:08.235Z,0.50
2024-04-15T13:09:35.114Z,0.43
2024-04-15T13:12:01.812Z,0.80
2024-04-15T13:14:28.589Z,0.65
2024-04-15T13:16:55.286Z,0.77
2024-04-15T13:19:22.169Z,1.00
2024-04-15T13:21:49.011Z,0.82
2024-04-15T13:24:16.747Z,0.80
2024-04-15T13:26:43.471Z,0.52
2024-04-15T13:29:10.257Z,0.55
2024-04-15T13:31:37.043Z,0.57
2024-04-15T13:34:05.297Z,1.00
2024-04-15T13:36:33.027Z,0.70
2024-04-15T13:38:59.742Z,0.85
2024-04-15T13:41:26.498Z,1.23
2024-04-15T13:43:53.259Z,1.05
2024-04-15T13:46:20.171Z,0.50
2024-04-15T13:48:46.979Z,0.63
2024-04-15T13:51:13.690Z,1.30
2024-04-15T13:53:40.390Z,1.00
2024-04-15T13:56:07.590Z,0.68
2024-04-15T13:58:34.467Z,0.63
2024-04-15T14:01:01.277Z,0.55
2024-04-15T14:03:28.378Z,1.23
2024-04-15T14:05:55.227Z,0.65
2024-04-15T14:08:22.920Z,0.50
2024-04-15T14:10:50.084Z,0.50
2024-04-15T14:13:17.466Z,0.60
2024-04-15T14:15:44.508Z,0.68
2024-04-15T14:18:11.530Z,0.63
2024-04-15T14:20:38.231Z,0.55
2024-04-15T14:23:05.659Z,0.73
2024-04-15T14:25:32.457Z,1.13
2024-04-15T14:27:59.339Z,0.60
2024-04-15T14:30:26.075Z,0.50
2024-04-15T14:32:53.171Z,1.15
2024-04-15T14:35:19.956Z,0.60
2024-04-15T14:37:46.787Z,0.82
2024-04-15T14:40:21.946Z,0.98
2024-04-15T14:42:51.096Z,0.90
2024-04-15T14:45:18.219Z,0.50
2024-04-15T14:47:46.731Z,0.50
2024-04-15T14:50:13.826Z,0.80
2024-04-15T14:52:40.531Z,1.30
2024-04-15T14:55:07.463Z,0.50
2024-04-15T14:57:34.300Z,0.50
2024-04-15T15:00:01.186Z,0.70
2024-04-15T15:02:27.974Z,0.47
2024-04-15T15:04:54.758Z,0.95
2024-04-15T15:07:21.609Z,0.82
2024-04-15T15:09:48.432Z,0.65
2024-04-15T15:12:15.361Z,0.60
2024-04-15T15:14:42.150Z,0.73
2024-04-15T15:17:09.408Z,0.55
2024-04-15T15:19:36.666Z,0.63
2024-04-15T15:22:03.718Z,0.60
2024-04-15T15:24:30.454Z,0.70
2024-04-15T15:26:57.227Z,0.70
2024-04-15T15:29:24.176Z,0.70
2024-04-15T15:31:51.875Z,0.65
2024-04-15T15:34:18.817Z,0.50
2024-04-15T15:36:45.711Z,0.50
2024-04-15T15:39:13.395Z,0.60
2024-04-15T15:41:40.356Z,0.40
2024-04-15T15:44:07.050Z,0.43
2024-04-15T15:46:34.038Z,0.35
2024-04-15T15:49:01.145Z,0.40
2024-04-15T15:51:28.305Z,0.45
2024-04-15T15:53:55.022Z,0.73
2024-04-15T15:56:21.755Z,0.77
2024-04-15T15:58:48.494Z,0.63
2024-04-15T16:01:15.278Z,0.45
2024-04-15T16:03:42.305Z,0.30
2024-04-15T16:06:09.527Z,1.15
2024-04-15T16:08:36.689Z,0.40
2024-04-15T16:11:03.614Z,0.50
2024-04-15T16:13:30.447Z,0.38
2024-04-15T16:15:57.200Z,0.65
2024-04-15T16:18:23.893Z,0.63
2024-04-15T16:20:51.036Z,0.38
2024-04-15T16:23:17.827Z,0.20
2024-04-15T16:25:44.674Z,0.95
2024-04-15T16:28:11.789Z,0.82
2024-04-15T16:30:38.716Z,0.32
2024-04-15T16:33:05.745Z,0.40
2024-04-15T16:35:32.582Z,0.45
2024-04-15T16:37:59.296Z,0.38
2024-04-15T16:40:26.135Z,0.60
2024-04-15T16:42:55.378Z,0.47
2024-04-15T16:45:22.255Z,0.30
2024-04-15T16:50:59.104Z,0.40
2024-04-15T16:54:04.175Z,0.40
2024-04-15T16:56:40.293Z,0.30
2024-04-15T16:59:07.366Z,0.30
2024-04-15T17:01:34.293Z,0.40
2024-04-15T17:04:01.384Z,0.32
2024-04-15T17:06:28.598Z,0.40
2024-04-15T17:08:56.901Z,0.57
2024-04-15T17:11:23.814Z,0.32
2024-04-15T17:13:50.602Z,0.43
2024-04-15T17:16:17.422Z,0.43
2024-04-15T17:18:44.390Z,0.50
2024-04-15T17:21:11.089Z,0.40
2024-04-15T17:23:37.782Z,0.80
2024-04-15T17:26:04.752Z,0.63
2024-04-15T17:28:31.662Z,0.43
2024-04-15T17:30:58.382Z,0.47
2024-04-15T17:33:25.147Z,0.70
2024-04-15T17:35:52.239Z,0.40
2024-04-15T17:38:18.975Z,0.30
2024-04-15T17:40:45.650Z,0.15
2024-04-15T17:43:12.359Z,0.20
2024-04-15T17:45:39.190Z,0.30
2024-04-15T17:48:06.327Z,0.22
2024-04-15T17:50:33.035Z,0.55
2024-04-15T17:52:59.755Z,0.57
2024-04-15T17:55:26.765Z,0.90
2024-04-15T17:57:58.332Z,0.55
2024-04-15T18:00:26.698Z,0.20
2024-04-15T18:02:56.672Z,0.57
2024-04-15T18:05:24.155Z,0.85
2024-04-15T18:07:50.836Z,0.40
2024-04-15T18:10:18.574Z,0.30
2024-04-15T18:12:48.174Z,0.55
2024-04-15T18:15:15.339Z,0.23
2024-04-15T18:17:42.586Z,0.30
2024-04-15T18:20:09.959Z,0.70
2024-04-15T18:22:36.956Z,0.43
2024-04-15T18:25:04.167Z,0.40
2024-04-15T18:27:30.962Z,0.30
2024-04-15T18:29:58.033Z,0.20
2024-04-15T18:32:24.904Z,0.10
2024-04-15T18:34:51.637Z,0.17
2024-04-15T18:37:19.685Z,0.30
2024-04-15T18:39:46.595Z,0.20
2024-04-15T18:42:13.386Z,0.22
2024-04-15T18:44:40.299Z,0.30
2024-04-15T18:47:07.029Z,0.15
2024-04-15T18:49:33.763Z,0.20
2024-04-15T18:52:01.115Z,0.32
2024-04-15T18:54:27.862Z,0.20
2024-04-15T18:56:54.813Z,0.28
2024-04-15T18:59:21.575Z,0.38
2024-04-15T19:01:48.264Z,0.35
2024-04-15T19:04:15.104Z,0.40
2024-04-15T19:06:41.963Z,0.40
2024-04-15T19:09:08.796Z,0.47
2024-04-15T19:11:35.531Z,0.50
2024-04-15T19:14:02.623Z,0.40
2024-04-15T19:16:29.718Z,0.25
2024-04-15T19:18:57.866Z,0.98
2024-04-15T19:21:24.787Z,0.32
2024-04-15T19:23:51.885Z,0.40
2024-04-15T19:26:18.550Z,0.50
2024-04-15T19:28:45.240Z,0.35
2024-04-15T19:31:22.831Z,0.40
2024-04-15T19:33:56.367Z,0.77
2024-04-15T19:36:23.139Z,0.70
2024-04-15T19:38:49.870Z,0.50
2024-04-15T19:41:16.546Z,0.73
2024-04-15T19:43:43.254Z,0.55
2024-04-15T19:46:10.002Z,0.63
2024-04-15T19:48:37.755Z,0.60
2024-04-15T19:51:04.587Z,0.47
2024-04-15T19:53:31.320Z,0.35
2024-04-15T19:55:57.988Z,1.30
2024-04-15T19:58:24.740Z,0.30
2024-04-15T20:00:51.648Z,0.32
2024-04-15T20:03:18.343Z,0.88
2024-04-15T20:05:45.236Z,0.35
2024-04-15T20:08:20.603Z,0.20
2024-04-15T20:10:48.410Z,0.50
2024-04-15T20:13:15.366Z,0.38
2024-04-15T20:15:42.141Z,0.55
2024-04-15T20:18:22.221Z,0.50
2024-04-15T20:20:50.045Z,0.68
2024-04-15T20:23:18.253Z,0.82
2024-04-15T20:25:45.785Z,0.40
2024-04-15T20:28:12.664Z,0.30
2024-04-15T20:30:39.391Z,0.70
2024-04-15T20:33:07.426Z,0.50
2024-04-15T20:35:34.195Z,0.30
2024-04-15T20:38:00.876Z,0.90
2024-04-15T20:40:35.585Z,0.80
2024-04-15T20:43:07.607Z,0.47
2024-04-15T20:45:35.120Z,0.95
2024-04-15T20:48:02.063Z,0.95
2024-04-15T20:50:28.922Z,0.80
2024-04-15T20:52:55.702Z,0.43
2024-04-15T20:55:22.432Z,0.50
2024-04-15T20:57:49.242Z,0.60
2024-04-15T21:00:15.922Z,0.50
2024-04-15T21:02:42.743Z,0.43
2024-04-15T21:05:09.457Z,0.65
2024-04-15T21:07:36.677Z,0.40
2024-04-15T21:10:03.563Z,0.57
2024-04-15T21:12:30.344Z,0.60
2024-04-15T21:14:57.020Z,1.35
2024-04-15T21:17:23.786Z,0.57
2024-04-15T21:19:50.489Z,1.00
2024-04-15T21:22:17.223Z,0.57
2024-04-15T21:24:43.952Z,0.80
2024-04-15T21:27:10.711Z,0.98
2024-04-15T21:29:37.449Z,0.68
2024-04-15T21:32:04.448Z,0.38
2024-04-15T21:34:31.214Z,0.85
2024-04-15T21:36:58.047Z,0.50
2024-04-15T21:39:24.822Z,0.90
2024-04-15T21:41:51.587Z,0.30
2024-04-15T21:44:18.349Z,0.57
2024-04-15T21:46:45.227Z,0.50
2024-04-15T21:49:12.108Z,0.77
2024-04-15T21:51:38.873Z,0.52
2024-04-15T21:54:05.685Z,0.98
2024-04-15T21:56:32.437Z,0.65
2024-04-15T21:58:59.287Z,1.23
2024-04-15T22:01:26.111Z,0.80
2024-04-15T22:03:53.741Z,0.85
2024-04-15T22:06:21.410Z,0.80
2024-04-15T22:08:48.183Z,0.52
2024-04-15T22:11:14.964Z,0.88
2024-04-15T22:13:41.806Z,1.10
2024-04-15T22:16:10.679Z,0.50
2024-04-15T22:18:37.582Z,0.50
2024-04-15T22:21:04.606Z,0.43
2024-04-15T22:23:31.364Z,0.47
2024-04-15T22:25:58.882Z,0.55
2024-04-15T22:28:25.809Z,0.40
2024-04-15T22:30:52.638Z,0.20
2024-04-15T22:33:19.615Z,0.85
2024-04-15T22:35:46.459Z,0.85
2024-04-15T22:38:13.295Z,0.45
2024-04-15T22:40:40.247Z,1.85
2024-04-15T22:43:07.653Z,0.60
2024-04-15T22:45:34.686Z,0.60
2024-04-15T22:48:01.830Z,0.60
2024-04-15T22:50:28.586Z,1.60
2024-04-15T22:52:55.758Z,0.43
2024-04-15T22:55:22.566Z,0.77
2024-04-15T22:57:50.154Z,0.63
2024-04-15T23:00:19.524Z,1.05
2024-04-15T23:02:47.939Z,0.50
2024-04-15T23:05:14.664Z,1.02
2024-04-15T23:07:41.354Z,0.95
2024-04-15T23:10:08.133Z,0.50
2024-04-15T23:12:34.814Z,0.63
2024-04-15T23:15:01.602Z,0.57
2024-04-15T23:17:28.453Z,0.60
2024-04-15T23:19:56.928Z,0.40
2024-04-15T23:22:23.637Z,0.57
2024-04-15T23:24:51.629Z,0.50
2024-04-15T23:27:18.287Z,0.40
2024-04-15T23:29:44.992Z,0.68
2024-04-15T23:32:11.687Z,0.40
2024-04-15T23:34:38.512Z,0.90
2024-04-15T23:37:05.318Z,1.30
2024-04-15T23:39:32.019Z,0.77
2024-04-15T23:41:58.651Z,1.20
2024-04-15T23:44:25.316Z,0.50
2024-04-15T23:47:10.377Z,0.73
2024-04-15T23:49:56.107Z,0.70
2024-04-15T23:52:41.763Z,0.90
2024-04-15T23:55:27.291Z,1.15
2024-04-15T23:57:57.928Z,1.10
